Weather at Campo di Volo Amyclae

Public forecast

Using degrees Celsius for public forecast. Weather courtesy of forecast.io.

Closest aviation weather report (METAR) to Campo di Volo Amyclae

Closest report is Frosinone Air Base, 20.1 nm (37.1 km) N.

2024/07/17 13:55 (retrieved 22 minutes ago)

LIRH 171355Z 20012KT 9999 FEW040 36/21 Q1014 RMK FEW MON LIB NC VIS MIN 9999 WIND THR16 25010KT BLU

Closest aviation forecast (TAF) to Campo di Volo Amyclae

Closest forecast is Ciampino–G. B. Pastine International Airport, 44.6 nm (82.6 km) NW.

2024/07/17 12:00 (retrieved 2 hours ago)

TAF LIRA 171100Z 1712/1812 27013KT CAVOK BECMG 1718/1720 VRB05KT